Terminal Aerodrome Forecast
Issued by NWS Cleveland, OH

Home | Current Version | Previous Version | Text Only | Print | Product List | Glossary Off
Versions: 1 2 3 4 5 6 7 8 9 10 11 12 13 14 15 16 17 18 19 20 21 22 23 24 25 26 27 28 29 30 31

000
FTUS41 KCLE 231400 AAA
TAFCLE
TAF AMD
KCLE 231455Z 2315/2418 19012KT P6SM VCSH SCT025 OVC035
     FM232100 15014G22KT P6SM SCT020 OVC035
     FM240100 14020G30KT 5SM -SHRA SCT008 OVC020
     FM240800 18020G30KT P6SM VCSH BKN018 OVC025
     FM241500 18023G33KT P6SM OVC030=

USA.gov is the U.S. government's official web portal to all federal, state and local government web resources and services.